world map with GAF marked

GAF - Airport

This information may not be accurate or current and is not valid for navigation or flight planning. No warranty of fitness for any purpose is made or implied.

flag of Tunisia

Donate via PayPal

Additional information is available on the NEW Great Circle Mapper

Location
City:  Gafsa, Tunisia
Name:Ksar International Airport
ICAO / IATA:DTTF / GAF

Details
Type:Airport (Aerodrome, Airfield)
Use:Public/Civil, Military
Latitude:34°24'56"N (34.415556)
Longitude:8°48'49"E (8.813611)
Elevation:1060 ft (323 m)
Runways:1
Longest:9514 × 148 ft (2900 × 45 m)

Time
Timezone:UTC+1 (DST+2)

Weather
METAR:DTTF  041400Z 32013KT 290V350 9999 SCT026 SCT030 10/M01 Q1014 NOSIG
TAF:DTTF  (expired)

Related Locations
Nearby:
Farthest:NZJP: 11803 mi / 18996 km
Te Puia Springs [Hospital Heliport], GIS, NZ

Find:

   beyond  
but within

Other Information
Maps:
Sources:

  


 


Great Circle Mapper   Great Circle Mapper
Great Circle Mapper FAQ   Great Circle Mapper FAQ
  Karl's Home Page
KLSē   KLSē Home
   GC on Facebook
Airlines of the World   Airlines of the World
Donate via PayPal


Copyright © 2004-2019, Karl L. Swartz. All rights reserved.
All trademarks mentioned herein belong to their respective owners.

Please see credits for attribution and copyright information.

Karl Swartz <karl@kls2.com>
  Powered by FreeBSD
Valid HTML 4.01!
Labeled with ICRA
hCard Microformat
Geo Microformat